Aviation Digital Data Service (ADDS)

Output produced by METARs form (2014 UTC 01 August 2015)
found at http://aviationweather.gov/adds/metars/
 
KOAJ 011721Z 0118/0218 00000KT P6SM SKC 
     FM020000 VRB02KT P6SM SCT250 
     FM020900 00000KT 3SM BR SCT250 
     FM021300 35004KT P6SM SKC AMD LTD TO CLD VIS AND WIND